»·PEaware :: AAL1160 KSAN-KPHX

AAL1160 :: KSAN-KPHX

FLIGHT INFORMATION

Flight Status: Arrived
Operator:
American Airlines
More flights by this operator :: More flights under this callsign
Pilot: Patricio R. (14780)
Aircraft: MCDONNELL-DOUGLAS MD-88
(MD88)
More flights by this aircraft type
Origin: KSAN San Diego Intl-Lindbergh
United States
Destination: KPHX Phoenix Sky Harbor Intl
United States
More flights between these airports :: More routes between these airports
Route: +ZZOOO1 IPL J18 BZA HOGGZ HYDRR1
File this flight plan on PilotEdge
Remarks:
Altitude:
(Current/Filed)
35,000ft
Speed:
(Current/Filed)
450kts
Departed: 09-Jan-18 08:21 PM
Arrived: 09-Jan-18 09:20 PM
Distance/Time
Traveled:
264nm/0:59
Distance/Time
To Go:
Arrived

Flight Plot

Page will automatically refresh every two minutes.


Map Options




Map Legend


Flown Route
Filed Route
Departure Airport
Arrival Airport
Navaid (VOR, NDB)
Fix

Horizontal Profiles

Position Reports

Time Latitude Longitude Heading Altitude Ground
Speed
09-Jan-18 19:55 32.732488 -117.200653 248 17ft 0kts
09-Jan-18 19:56 32.732488 -117.200653 248 17ft 0kts
09-Jan-18 19:57 32.732488 -117.200653 248 17ft 0kts
09-Jan-18 19:58 32.732488 -117.200653 248 17ft 0kts
09-Jan-18 19:59 32.732488 -117.200653 248 17ft 0kts
09-Jan-18 20:00 32.732488 -117.200653 248 17ft 0kts
09-Jan-18 20:01 32.732488 -117.200653 248 17ft 0kts
09-Jan-18 20:02 32.732488 -117.200653 248 17ft 0kts
09-Jan-18 20:03 32.732488 -117.200653 248 17ft 0kts
09-Jan-18 20:04 32.732488 -117.200653 248 17ft 0kts
09-Jan-18 20:05 32.732488 -117.200653 248 17ft 0kts
09-Jan-18 20:06 32.732488 -117.200653 248 17ft 0kts
09-Jan-18 20:07 32.732488 -117.200653 248 17ft 0kts
09-Jan-18 20:08 32.732488 -117.200653 248 17ft 0kts
09-Jan-18 20:09 32.732642 -117.200333 240 17ft 2kts
09-Jan-18 20:10 32.732922 -117.199702 275 17ft 2kts
09-Jan-18 20:11 32.732781 -117.199482 325 17ft 0kts
09-Jan-18 20:12 32.732781 -117.199482 325 17ft 0kts
09-Jan-18 20:13 32.732781 -117.199482 325 17ft 0kts
09-Jan-18 20:14 32.732781 -117.199483 325 17ft 0kts
09-Jan-18 20:15 32.732781 -117.199483 325 17ft 0kts
09-Jan-18 20:16 32.733109 -117.199736 334 17ft 2kts
09-Jan-18 20:17 32.733882 -117.199715 12 17ft 3kts
09-Jan-18 20:18 32.734105 -117.199649 15 18ft 0kts
09-Jan-18 20:19 32.734105 -117.199649 15 18ft 0kts
09-Jan-18 20:20 32.734105 -117.199649 15 18ft 0kts
09-Jan-18 20:21 32.734105 -117.199649 15 18ft 0kts
09-Jan-18 20:22 32.734647 -117.198432 105 18ft 16kts
09-Jan-18 20:23 32.732081 -117.187921 105 19ft 35kts
09-Jan-18 20:24 32.729834 -117.178573 106 18ft 22kts
09-Jan-18 20:25 32.729491 -117.177171 102 19ft 1kts
09-Jan-18 20:26 32.729974 -117.175515 1 25ft 3kts
09-Jan-18 20:27 32.735042 -117.195691 284 38ft 158kts
09-Jan-18 20:28 32.747746 -117.245891 282 2128ft 166kts
09-Jan-18 20:29 32.749953 -117.306283 240 3808ft 204kts
09-Jan-18 20:30 32.705634 -117.347223 203 6416ft 218kts
09-Jan-18 20:31 32.639944 -117.331122 132 8033ft 298kts
09-Jan-18 20:32 32.617445 -117.233688 121 10489ft 315kts
09-Jan-18 20:33 32.575824 -117.140230 122 12814ft 327kts
09-Jan-18 20:34 32.513708 -117.073853 189 14376ft 323kts
09-Jan-18 20:35 32.465957 -117.138001 292 14273ft 279kts
09-Jan-18 20:36 32.534773 -117.131569 63 15712ft 347kts
09-Jan-18 20:37 32.571085 -117.023543 64 17549ft 364kts
09-Jan-18 20:38 32.602480 -116.906233 77 19276ft 382kts
09-Jan-18 20:39 32.627914 -116.781931 80 21070ft 394kts
09-Jan-18 20:40 32.641631 -116.650545 87 22352ft 417kts
09-Jan-18 20:41 32.654803 -116.509046 87 23421ft 445kts
09-Jan-18 20:42 32.668901 -116.360767 87 25099ft 451kts
09-Jan-18 20:43 32.683116 -116.212912 88 26684ft 455kts
09-Jan-18 20:44 32.697798 -116.062053 88 28005ft 463kts
09-Jan-18 20:45 32.711415 -115.908259 89 28879ft 479kts
09-Jan-18 20:46 32.726050 -115.747703 88 29375ft 501kts
09-Jan-18 20:47 32.741463 -115.582392 88 30314ft 501kts
09-Jan-18 20:48 32.809576 -115.440408 51 30627ft 511kts
09-Jan-18 20:49 32.900143 -115.309414 51 31471ft 515kts
09-Jan-18 20:50 32.918588 -115.154416 120 32222ft 472kts
09-Jan-18 20:51 32.873567 -115.008270 121 32810ft 471kts
09-Jan-18 20:52 32.832425 -114.860638 121 32825ft 473kts
09-Jan-18 20:53 32.794901 -114.711819 120 32459ft 464kts
09-Jan-18 20:54 32.758885 -114.568701 115 30906ft 455kts
09-Jan-18 20:55 32.758107 -114.411232 94 28962ft 484kts
09-Jan-18 20:56 32.764924 -114.268241 94 27132ft 472kts
09-Jan-18 20:57 32.772192 -114.114757 94 25103ft 459kts
09-Jan-18 20:58 32.785093 -113.969950 89 24413ft 432kts
09-Jan-18 20:59 32.799930 -113.829946 89 22836ft 421kts
09-Jan-18 21:00 32.816644 -113.694835 77 21307ft 412kts
09-Jan-18 21:01 32.887010 -113.590412 48 20077ft 405kts
09-Jan-18 21:02 32.960924 -113.492698 50 18886ft 392kts
09-Jan-18 21:03 33.032337 -113.396537 50 17840ft 383kts
09-Jan-18 21:04 33.101747 -113.302007 52 17060ft 383kts
09-Jan-18 21:05 33.157315 -113.226678 51 16373ft 380kts
09-Jan-18 21:06 33.226652 -113.132957 51 15590ft 374kts
09-Jan-18 21:07 33.278975 -113.031216 95 15159ft 351kts
09-Jan-18 21:08 33.278049 -112.915798 97 14653ft 342kts
09-Jan-18 21:09 33.281010 -112.806306 93 14054ft 323kts
09-Jan-18 21:10 33.291142 -112.700383 92 13511ft 320kts
09-Jan-18 21:11 33.300911 -112.594806 92 12826ft 317kts
09-Jan-18 21:12 33.310570 -112.490645 91 12083ft 313kts
09-Jan-18 21:13 33.320202 -112.387636 91 11351ft 312kts
09-Jan-18 21:14 33.328981 -112.286578 92 10535ft 298kts
09-Jan-18 21:15 33.337532 -112.191003 91 9652ft 281kts
09-Jan-18 21:16 33.346169 -112.103064 92 8995ft 254kts
09-Jan-18 21:17 33.346380 -112.019583 99 8187ft 252kts
09-Jan-18 21:18 33.345153 -111.936047 99 7174ft 250kts
09-Jan-18 21:19 33.345287 -111.854561 98 6487ft 242kts
09-Jan-18 21:20 33.345983 -111.773938 90 5492ft 247kts
09-Jan-18 21:21 33.396069 -111.732517 0 5055ft 248kts
09-Jan-18 21:22 33.438459 -111.783272 290 4723ft 230kts
09-Jan-18 21:23 33.441153 -111.851637 260 3359ft 198kts
09-Jan-18 21:24 33.440869 -111.914853 262 2360ft 179kts
09-Jan-18 21:25 33.441044 -111.968553 259 1592ft 152kts
09-Jan-18 21:26 33.440800 -112.009798 262 1115ft 22kts
09-Jan-18 21:27 33.439978 -112.011027 218 1115ft 5kts
09-Jan-18 21:28 33.439008 -112.010190 90 1115ft 8kts

Navigation Log

Ident Type
1. KSAN Airport
2. JETTI Fix
3. ZZOOO Fix
4. JORRJ Fix
5. GRIDR Fix
6. BLUZE Fix
7. IPL Navaid
8. IPL Navaid
9. HEEDS Fix
10. BZA Navaid
11. HOGGZ Fix
12. JUDTH Fix
13. RKDAM Fix
14. HYDRR Fix
15. GEELA Fix
16. PUNNT Fix
17. TEICH Fix
18. TESLE Fix
19. FALGO Fix
20. CAGOR Fix
21. FOWLE Fix
22. KPHX Airport